Boiling Springs, NC

4:23 AM EDT on August 30, 2014 (GMT -0400)
Gardner-Webb University | Change Station
CLOSE
Current Station
Personal Weather Station
Location: Boiling Springs, NC
Elevation: 850 ft
Nearby Weather Stations

Elev 850 ft 35.24 °N, 81.67 °W | Updated 12 minutes ago

Clear
Clear
69.7 °F
Feels Like 69.7 °F
N
0.0
Wind Variable Wind from ENE
Gusts 0.0 mph

Today
High -- | Low -- °F
--% Chance of Precip.
Yesterday
High -- | Low -- °F
Precip. -- in
6:57 AM 7:56 PM
Waxing Crescent, 20% visible
Pressure 30.18 in
Visibility 3.0 miles
Clouds Clear
Dew Point 69 °F
Humidity 96%
Rainfall 0.00 in
Snow Depth Not available.
UV 0 out of 12
Pollen 9.30 out of 12
Ozone Good
PM2.5 Moderate
Flu Activity Not available.
METAR KEHO 300815Z AUTO 00000KT 3SM BR CLR 21/20 A3018 RMK AO2 T02050202

More Conditions Fewer Conditions

Pressure 30.18 in
Visibility 3.0 miles
Clouds Clear
Dew Point 69 °F
Humidity 96%
Rainfall 0.00 in
Snow Depth Not available.
UV 0 out of 12
Pollen 9.30 out of 12
Ozone Good
PM2.5 Moderate
Flu Activity Not available.
METAR KEHO 300815Z AUTO 00000KT 3SM BR CLR 21/20 A3018 RMK AO2 T02050202

More Conditions Fewer Conditions

10-Day Weather Forecast

Almanac

Astronomy

Aug. 30, 2014 Rise Set
Actual Time 6:57 AM EDT 7:56 PM EDT
Civil Twilight 6:31 AM EDT 8:22 PM EDT
Nautical Twilight 6:00 AM EDT 8:52 PM EDT
Astronomical Twilight 5:28 AM EDT 9:24 PM EDT
Moon 11:32 AM EDT 10:42 PM EDT
Length of Visible Light 13h 50m
Length of Day
12h 58m
Tomorrow will be 2m 7s shorter.
Waxing Crescent, 20% of the Moon is Illuminated
Today
Waxing Crescent
Sep 2
First Quarter
Sep 8
Full
Sep 15
Last Quarter
Sep 24
New

Today's Extremes

State Highs State Lows

Community

WunderPhotos

Upload Photos

1,748,472 photos uploaded!

Nearby

Air Quality

  Air Quality AQ Index Pollutant
Yesterday Moderate
PM2.5
Yesterday Moderate
OZONE
Current Moderate
PM2.5
Current Good
OZONE
Saturday Moderate
OZONE
Saturday Moderate
PM2.5
Sunday Good
OZONE
Sunday Good
PM2.5
Monday Good
OZONE
Monday Good
PM2.5

Snow Depth

Station Depth Elevation
No new snow has been reported.

Earthquake Activity

City Distance Mag. Time & Date
No recent earthquake activity has been reported nearby.
Minimum magnitude displayed is 2.5.

Coastal Water Temperatures

Place Temperature
No Stations Reporting

Nearby Weather Stations